Time;durP1;ratioP1;P1;durP2;ratioP2;P2;SDS_P1;SDS_P2;PMS_P1;PMS_P2;Temp;Humidity;BMP_temperature;BMP_pressure;BME280_temperature;BME280_humidity;BME280_pressure;Samples;Min_cycle;Max_cycle;Signal;HPM_P1;HPM_P2
2021/08/04 00:00:56;;;;;;;12.57;11.52;;;14.20;85.10;;;;;;5045586;29;20132;-68
2021/08/04 00:03:28;;;;;;;12.85;11.75;;;14.10;85.80;;;;;;5047924;29;20052;-68
2021/08/04 00:06:00;;;;;;;12.50;11.60;;;14.10;85.60;;;;;;5045978;29;20048;-70
2021/08/04 00:08:32;;;;;;;12.00;11.10;;;14.10;85.60;;;;;;5046025;29;20128;-68
2021/08/04 00:11:04;;;;;;;11.75;10.80;;;14.20;85.40;;;;;;5034586;29;20090;-69
2021/08/04 00:13:36;;;;;;;11.98;11.07;;;14.20;85.40;;;;;;5047848;29;20599;-69
2021/08/04 00:16:08;;;;;;;12.10;11.20;;;14.10;85.60;;;;;;5044095;29;20117;-69
2021/08/04 00:18:40;;;;;;;12.10;11.15;;;14.10;85.20;;;;;;5046850;29;20045;-69
2021/08/04 00:21:12;;;;;;;12.50;11.60;;;14.10;85.30;;;;;;5049198;29;20084;-68
2021/08/04 00:23:44;;;;;;;12.75;11.65;;;14.00;85.50;;;;;;5044100;29;20152;-68
2021/08/04 00:26:15;;;;;;;12.55;11.60;;;14.00;85.30;;;;;;5047067;29;20131;-69
2021/08/04 00:28:48;;;;;;;12.35;11.38;;;14.00;85.30;;;;;;5045403;29;20072;-68
2021/08/04 00:31:20;;;;;;;12.00;11.00;;;14.00;85.30;;;;;;5044073;29;20053;-69
2021/08/04 00:33:53;;;;;;;12.20;11.30;;;14.00;85.30;;;;;;5031925;29;20083;-69
2021/08/04 00:36:25;;;;;;;12.35;11.35;;;13.90;85.50;;;;;;5044896;29;20124;-68
2021/08/04 00:38:58;;;;;;;12.45;11.38;;;13.90;85.60;;;;;;5037857;29;20053;-68
2021/08/04 00:41:42;;;;;;;12.65;11.75;;;14.00;85.40;;;;;;5049183;29;20041;-70
2021/08/04 00:44:14;;;;;;;12.68;11.77;;;13.90;85.40;;;;;;5048767;29;20108;-68
2021/08/04 00:46:46;;;;;;;13.18;12.18;;;13.80;85.40;;;;;;5039840;29;20613;-68
2021/08/04 00:49:18;;;;;;;13.25;12.15;;;13.80;85.60;;;;;;5029922;29;20480;-69
2021/08/04 00:51:50;;;;;;;12.85;11.85;;;13.80;85.70;;;;;;5037331;29;20051;-69
2021/08/04 00:54:23;;;;;;;12.77;11.88;;;13.80;85.70;;;;;;5045394;29;20053;-69
2021/08/04 00:56:55;;;;;;;12.85;11.95;;;13.80;86.00;;;;;;5050307;29;20535;-69
2021/08/04 00:59:27;;;;;;;12.93;11.98;;;13.80;85.80;;;;;;5027580;29;20465;-68
2021/08/04 01:02:29;;;;;;;13.10;12.00;;;13.80;85.90;;;;;;5037415;29;20104;-69
2021/08/04 01:05:06;;;;;;;12.30;11.30;;;13.80;85.70;;;;;;5033325;29;21057;-69
2021/08/04 01:07:49;;;;;;;12.13;11.23;;;13.90;85.70;;;;;;5034390;29;20067;-70
2021/08/04 01:10:31;;;;;;;12.75;11.80;;;13.90;85.70;;;;;;5042626;29;20048;-69
2021/08/04 01:13:20;;;;;;;12.27;11.38;;;13.90;85.70;;;;;;5029994;29;20056;-71
2021/08/04 01:15:56;;;;;;;12.82;11.77;;;13.80;85.70;;;;;;5035186;29;20048;-69
2021/08/04 01:18:37;;;;;;;13.73;12.63;;;13.80;85.60;;;;;;5046355;29;20061;-69
2021/08/04 01:21:10;;;;;;;;;;;13.80;85.70;;;;;;5042975;29;20065;-70
2021/08/04 01:23:59;;;;;;;12.55;11.50;;;13.90;86.00;;;;;;5041810;29;19963;-68
2021/08/04 01:26:40;;;;;;;12.40;11.50;;;13.90;86.00;;;;;;5045655;29;20418;-68
2021/08/04 01:29:16;;;;;;;13.05;12.05;;;13.90;86.00;;;;;;5045463;29;20181;-69
2021/08/04 01:31:49;;;;;;;13.65;12.45;;;13.90;86.00;;;;;;5043654;29;20053;-70
2021/08/04 01:34:23;;;;;;;13.52;12.38;;;13.90;86.10;;;;;;5031195;29;20049;-69
2021/08/04 01:36:56;;;;;;;13.00;12.00;;;13.90;86.00;;;;;;5036033;29;20136;-69
2021/08/04 01:39:29;;;;;;;13.48;12.48;;;13.80;85.90;;;;;;5045560;29;20063;-69
2021/08/04 01:42:03;;;;;;;13.93;12.88;;;13.90;86.20;;;;;;5036716;29;20392;-70
2021/08/04 01:44:38;;;;;;;13.40;12.40;;;13.80;86.20;;;;;;5045823;29;20718;-69
2021/08/04 01:47:11;;;;;;;13.82;12.82;;;13.80;86.60;;;;;;5034350;29;20101;-69
2021/08/04 01:49:45;;;;;;;14.02;12.93;;;13.80;86.70;;;;;;5048797;29;20049;-70
2021/08/04 01:52:17;;;;;;;14.13;12.93;;;13.80;86.50;;;;;;5050560;29;20060;-69
2021/08/04 01:54:51;;;;;;;13.80;12.55;;;13.70;86.90;;;;;;5019110;29;20125;-69
2021/08/04 01:57:22;;;;;;;13.40;12.40;;;13.70;87.10;;;;;;5049425;29;20108;-69
2021/08/04 01:59:54;;;;;;;13.35;12.25;;;13.70;86.70;;;;;;5038093;29;20511;-69
2021/08/04 02:02:26;;;;;;;13.43;12.43;;;13.70;86.90;;;;;;5040837;29;20049;-70
2021/08/04 02:04:59;;;;;;;13.55;12.45;;;13.70;87.00;;;;;;5033819;29;20146;-69
2021/08/04 02:08:04;;;;;;;13.90;12.65;;;13.70;87.00;;;;;;5049975;29;20073;-69
2021/08/04 02:10:47;;;;;;;13.88;12.85;;;13.70;86.80;;;;;;5048184;29;20056;-70
2021/08/04 02:13:38;;;;;;;13.57;12.50;;;13.70;87.00;;;;;;5041445;29;20056;-70
2021/08/04 02:16:31;;;;;;;13.73;12.63;;;13.80;86.60;;;;;;5045654;29;20049;-70
2021/08/04 02:19:19;;;;;;;13.70;12.50;;;13.70;86.90;;;;;;5030278;29;20057;-70
2021/08/04 02:21:57;;;;;;;12.93;12.00;;;13.80;86.60;;;;;;5034042;29;20044;-69
2021/08/04 02:24:38;;;;;;;13.05;12.15;;;13.80;86.80;;;;;;5049488;29;20048;-70
2021/08/04 02:27:11;;;;;;;13.18;12.27;;;13.80;86.70;;;;;;5034001;29;20053;-69
2021/08/04 02:29:46;;;;;;;12.88;11.88;;;13.80;86.50;;;;;;5049163;29;20499;-68
2021/08/04 02:32:19;;;;;;;13.38;12.43;;;13.80;86.40;;;;;;5049539;29;20055;-69
2021/08/04 02:34:51;;;;;;;13.68;12.68;;;13.80;86.60;;;;;;5050549;29;20149;-69
2021/08/04 02:37:24;;;;;;;12.95;11.93;;;13.80;86.70;;;;;;5029095;29;20939;-70
2021/08/04 02:39:56;;;;;;;13.23;12.23;;;13.80;86.60;;;;;;5046211;29;20041;-69
2021/08/04 02:42:29;;;;;;;12.93;12.00;;;13.80;87.00;;;;;;5022838;29;20040;-68
2021/08/04 02:45:04;;;;;;;12.43;11.50;;;13.70;86.70;;;;;;5032789;29;20423;-70
2021/08/04 02:47:36;;;;;;;13.25;12.25;;;13.80;86.80;;;;;;5047875;29;20045;-69
2021/08/04 02:50:09;;;;;;;13.80;12.70;;;13.80;86.80;;;;;;5048000;29;20367;-69
2021/08/04 02:52:42;;;;;;;13.38;12.45;;;13.70;86.90;;;;;;5019294;29;20722;-68
2021/08/04 02:55:15;;;;;;;13.30;12.30;;;13.80;86.80;;;;;;5051919;29;20654;-70
2021/08/04 02:57:47;;;;;;;13.38;12.40;;;13.80;86.60;;;;;;5051300;29;20041;-68
2021/08/04 03:00:19;;;;;;;13.00;12.10;;;13.70;86.90;;;;;;5046202;29;20578;-68
2021/08/04 03:02:51;;;;;;;12.80;11.90;;;13.70;86.80;;;;;;5048444;29;20120;-68
2021/08/04 03:05:24;;;;;;;12.52;11.63;;;13.70;86.50;;;;;;5048693;29;20052;-68
2021/08/04 03:07:56;;;;;;;12.63;11.68;;;13.70;86.80;;;;;;5048340;29;20048;-67
2021/08/04 03:10:28;;;;;;;13.23;12.23;;;13.70;87.00;;;;;;5048858;29;20055;-68
2021/08/04 03:13:00;;;;;;;13.10;12.10;;;13.60;86.80;;;;;;5046922;29;20096;-68
2021/08/04 03:15:33;;;;;;;12.80;11.80;;;13.60;86.80;;;;;;5038523;29;20124;-69
2021/08/04 03:18:05;;;;;;;12.95;11.95;;;13.60;87.00;;;;;;5032878;29;20053;-68
2021/08/04 03:20:37;;;;;;;12.95;11.88;;;13.60;86.80;;;;;;5049983;29;20478;-68
2021/08/04 03:23:09;;;;;;;12.88;11.95;;;13.60;86.90;;;;;;5047435;29;20148;-68
2021/08/04 03:25:41;;;;;;;12.80;11.90;;;13.60;86.60;;;;;;5032269;29;21050;-68
2021/08/04 03:28:13;;;;;;;12.43;11.52;;;13.70;87.10;;;;;;5049673;29;20053;-68
2021/08/04 03:30:45;;;;;;;12.90;12.00;;;13.70;87.10;;;;;;5050307;29;20135;-70
2021/08/04 03:33:20;;;;;;;12.60;11.65;;;13.70;86.80;;;;;;5048745;29;20057;-68
2021/08/04 03:35:51;;;;;;;12.10;11.20;;;13.70;86.80;;;;;;5047944;29;20143;-68
2021/08/04 03:38:23;;;;;;;12.35;11.45;;;13.70;86.70;;;;;;5048152;29;20128;-68
2021/08/04 03:40:55;;;;;;;12.05;11.15;;;13.70;86.90;;;;;;5044417;29;20128;-68
2021/08/04 03:43:27;;;;;;;13.15;12.20;;;13.60;86.60;;;;;;5049763;29;20135;-69
2021/08/04 03:45:59;;;;;;;12.75;11.82;;;13.60;86.70;;;;;;5045294;29;20140;-68
2021/08/04 03:48:31;;;;;;;12.40;11.50;;;13.50;86.70;;;;;;5045921;29;20048;-68
2021/08/04 03:51:04;;;;;;;12.55;11.65;;;13.50;86.70;;;;;;5045457;29;20076;-69
2021/08/04 03:53:36;;;;;;;13.10;12.20;;;13.50;86.90;;;;;;5049889;29;20072;-69
2021/08/04 03:56:08;;;;;;;12.35;11.35;;;13.50;87.00;;;;;;5050487;29;20068;-69
2021/08/04 03:58:40;;;;;;;12.50;11.50;;;13.40;86.90;;;;;;5045980;29;20083;-68
2021/08/04 04:01:11;;;;;;;12.25;11.25;;;13.40;87.20;;;;;;5045613;29;20080;-68
2021/08/04 04:03:44;;;;;;;12.30;11.40;;;13.40;87.30;;;;;;5049147;29;20045;-69
2021/08/04 04:06:15;;;;;;;12.23;11.32;;;13.40;87.20;;;;;;5046009;29;20101;-70
2021/08/04 04:08:47;;;;;;;12.90;11.93;;;13.30;87.50;;;;;;5046742;29;20658;-70
2021/08/04 04:11:20;;;;;;;12.52;11.63;;;13.30;87.50;;;;;;5047349;29;20057;-70
2021/08/04 04:13:52;;;;;;;12.82;11.82;;;13.30;87.50;;;;;;5016325;29;20060;-68
2021/08/04 04:16:24;;;;;;;12.68;11.77;;;13.30;87.60;;;;;;5048545;29;20491;-68
2021/08/04 04:18:56;;;;;;;12.95;12.05;;;13.30;87.60;;;;;;5047004;29;20068;-68
2021/08/04 04:21:28;;;;;;;11.85;10.90;;;13.30;87.80;;;;;;5040926;29;20110;-68
2021/08/04 04:24:00;;;;;;;11.80;10.90;;;13.30;87.80;;;;;;5047690;29;20481;-68
2021/08/04 04:26:32;;;;;;;11.73;10.82;;;13.30;87.80;;;;;;5041923;29;20081;-69
2021/08/04 04:29:04;;;;;;;11.45;10.65;;;13.40;87.70;;;;;;5044894;29;20571;-68
2021/08/04 04:31:36;;;;;;;11.50;10.52;;;13.40;87.60;;;;;;5045112;29;20832;-71
2021/08/04 04:34:08;;;;;;;11.88;10.98;;;13.40;87.50;;;;;;5046649;29;20128;-68
2021/08/04 04:36:40;;;;;;;11.80;11.00;;;13.50;88.00;;;;;;5043389;29;21318;-67
2021/08/04 04:39:12;;;;;;;11.60;10.70;;;13.50;87.80;;;;;;5036776;29;20538;-68
2021/08/04 04:41:43;;;;;;;11.75;10.70;;;13.50;88.10;;;;;;5041410;29;20407;-69
2021/08/04 04:44:16;;;;;;;11.63;10.82;;;13.50;88.30;;;;;;5043886;29;20163;-69
2021/08/04 04:46:50;;;;;;;11.43;10.52;;;13.40;88.00;;;;;;5030272;29;20132;-69
2021/08/04 04:49:22;;;;;;;10.90;10.10;;;13.40;88.10;;;;;;5049659;29;20109;-68
2021/08/04 04:51:53;;;;;;;11.20;10.40;;;13.40;88.10;;;;;;5047282;29;20061;-68
2021/08/04 04:54:25;;;;;;;11.82;10.82;;;13.40;87.80;;;;;;5046246;29;20531;-68
2021/08/04 04:56:57;;;;;;;12.00;11.10;;;13.50;88.30;;;;;;5049001;29;20073;-69
2021/08/04 04:59:29;;;;;;;12.07;11.10;;;13.50;88.00;;;;;;5044623;29;20135;-69
2021/08/04 05:02:01;;;;;;;12.23;11.32;;;13.50;87.80;;;;;;5045223;29;20080;-69
2021/08/04 05:04:33;;;;;;;11.23;10.35;;;13.60;87.70;;;;;;5043155;29;20144;-69
2021/08/04 05:07:05;;;;;;;11.70;10.70;;;13.60;87.50;;;;;;5044323;29;20113;-69
2021/08/04 05:09:37;;;;;;;11.57;10.70;;;13.60;87.50;;;;;;5046302;29;20088;-69
2021/08/04 05:12:09;;;;;;;11.20;10.40;;;13.60;87.50;;;;;;5042628;29;20049;-70
2021/08/04 05:14:41;;;;;;;11.70;10.70;;;13.60;87.30;;;;;;5049671;29;20128;-70
2021/08/04 05:17:13;;;;;;;11.45;10.65;;;13.60;87.40;;;;;;5046829;29;20044;-70
2021/08/04 05:19:45;;;;;;;10.93;10.13;;;13.60;87.40;;;;;;5048740;29;20049;-71
2021/08/04 05:22:17;;;;;;;11.60;10.63;;;13.60;87.50;;;;;;5046566;29;20052;-70
2021/08/04 05:24:49;;;;;;;12.57;11.57;;;13.60;87.40;;;;;;5048301;29;20077;-70
2021/08/04 05:27:21;;;;;;;12.02;11.13;;;13.60;88.50;;;;;;5051098;29;20127;-69
2021/08/04 05:29:53;;;;;;;12.02;11.02;;;13.60;88.00;;;;;;5050449;29;20068;-71
2021/08/04 05:32:25;;;;;;;12.85;11.85;;;13.60;87.90;;;;;;5052638;29;20112;-70
2021/08/04 05:34:57;;;;;;;11.63;10.57;;;13.60;87.70;;;;;;5048929;29;20422;-68
2021/08/04 05:37:29;;;;;;;11.93;11.02;;;13.60;87.50;;;;;;5047074;29;20045;-70
2021/08/04 05:40:00;;;;;;;12.52;11.63;;;13.60;87.50;;;;;;5050083;29;20103;-70
2021/08/04 05:42:32;;;;;;;11.98;10.98;;;13.70;87.80;;;;;;5046781;29;20049;-70
2021/08/04 05:45:05;;;;;;;11.68;10.82;;;13.70;87.60;;;;;;5052330;29;20068;-70
2021/08/04 05:47:37;;;;;;;11.60;10.75;;;13.70;87.30;;;;;;5046685;29;20120;-71
2021/08/04 05:50:10;;;;;;;11.88;11.07;;;13.70;87.60;;;;;;5033307;29;20610;-70
2021/08/04 05:52:42;;;;;;;11.60;10.80;;;13.70;87.70;;;;;;5049062;29;20147;-70
2021/08/04 05:55:14;;;;;;;12.18;11.20;;;13.70;88.60;;;;;;5049174;29;20041;-71
2021/08/04 05:57:46;;;;;;;12.00;11.10;;;13.70;87.60;;;;;;5050556;29;20118;-70
2021/08/04 06:00:18;;;;;;;12.23;11.32;;;13.70;87.90;;;;;;5048730;29;20133;-71
2021/08/04 06:02:50;;;;;;;12.48;11.48;;;13.70;88.20;;;;;;5049844;29;20403;-70
2021/08/04 06:05:23;;;;;;;12.10;11.20;;;13.70;88.30;;;;;;5048185;29;20136;-70
2021/08/04 06:07:55;;;;;;;12.40;11.50;;;13.60;88.20;;;;;;5050142;29;20044;-69
2021/08/04 06:10:27;;;;;;;11.45;10.65;;;13.60;88.40;;;;;;5048301;29;20055;-69
2021/08/04 06:12:59;;;;;;;11.60;10.70;;;13.60;87.90;;;;;;5038177;29;20815;-69
2021/08/04 06:15:53;;;;;;;11.43;10.63;;;13.60;87.80;;;;;;5048847;29;20144;-69
2021/08/04 06:18:25;;;;;;;11.05;10.25;;;13.60;87.70;;;;;;5047463;29;20063;-70
2021/08/04 06:20:57;;;;;;;11.57;10.68;;;13.70;87.80;;;;;;5046113;29;20873;-69
2021/08/04 06:23:29;;;;;;;11.45;10.65;;;13.70;88.10;;;;;;5048608;29;20048;-70
2021/08/04 06:26:01;;;;;;;12.00;11.10;;;13.70;88.20;;;;;;5052065;29;20080;-70
2021/08/04 06:28:49;;;;;;;11.55;10.65;;;13.80;87.90;;;;;;5051832;29;20506;-69
2021/08/04 06:31:20;;;;;;;11.88;10.98;;;13.80;87.70;;;;;;5047272;29;20061;-69
2021/08/04 06:33:52;;;;;;;11.65;10.85;;;13.90;87.90;;;;;;5050116;29;20049;-69
2021/08/04 06:36:25;;;;;;;11.32;10.52;;;13.90;87.70;;;;;;5046642;29;20524;-69
2021/08/04 06:38:57;;;;;;;11.25;10.40;;;13.90;87.50;;;;;;5051183;29;20119;-69
2021/08/04 06:41:29;;;;;;;11.82;11.02;;;14.00;87.50;;;;;;5047477;29;20100;-69
2021/08/04 06:44:01;;;;;;;12.43;11.52;;;14.00;87.30;;;;;;5052533;29;20113;-70
2021/08/04 06:46:38;;;;;;;11.57;10.77;;;14.10;86.80;;;;;;5050648;29;20575;-70
2021/08/04 06:49:10;;;;;;;12.10;11.20;;;14.10;87.10;;;;;;5040830;29;20141;-69
2021/08/04 06:51:41;;;;;;;12.52;11.60;;;14.20;87.10;;;;;;5051271;29;20460;-69
2021/08/04 06:54:13;;;;;;;12.40;11.50;;;14.30;87.50;;;;;;5047935;29;20045;-69
2021/08/04 06:56:45;;;;;;;12.82;11.63;;;14.40;87.00;;;;;;5047415;29;20132;-69
2021/08/04 06:59:18;;;;;;;13.02;12.13;;;14.40;87.50;;;;;;5047161;29;20048;-70
2021/08/04 07:01:50;;;;;;;13.10;12.20;;;14.50;88.20;;;;;;5048219;29;20102;-70
2021/08/04 07:04:22;;;;;;;13.20;12.30;;;14.50;87.90;;;;;;5047821;29;20404;-69
2021/08/04 07:06:56;;;;;;;13.05;12.15;;;14.60;87.40;;;;;;5046703;29;20056;-70
2021/08/04 07:09:28;;;;;;;13.82;12.93;;;14.70;88.60;;;;;;5049584;29;20055;-70
2021/08/04 07:12:02;;;;;;;14.00;13.00;;;14.80;88.10;;;;;;5050727;29;20103;-69
2021/08/04 07:14:34;;;;;;;14.30;13.30;;;14.80;87.50;;;;;;5034114;29;20080;-70
2021/08/04 07:17:06;;;;;;;14.25;13.20;;;14.80;87.50;;;;;;5046136;29;20048;-70
2021/08/04 07:19:39;;;;;;;13.60;12.60;;;14.90;87.90;;;;;;5039080;29;20148;-69
2021/08/04 07:22:11;;;;;;;13.60;12.70;;;15.00;87.30;;;;;;5048468;29;20057;-69
2021/08/04 07:24:43;;;;;;;13.10;12.20;;;15.00;86.00;;;;;;5034945;29;20037;-70
2021/08/04 07:27:15;;;;;;;13.48;12.52;;;15.00;85.70;;;;;;5051675;29;20052;-69
2021/08/04 07:29:47;;;;;;;13.05;12.15;;;15.00;86.30;;;;;;5048237;29;20067;-71
2021/08/04 07:32:18;;;;;;;13.65;12.75;;;15.00;86.60;;;;;;5047002;29;20048;-70
2021/08/04 07:34:50;;;;;;;13.23;12.13;;;15.00;86.80;;;;;;5049454;29;20484;-69
2021/08/04 07:37:22;;;;;;;13.50;12.50;;;15.00;85.80;;;;;;5047883;29;20180;-70
2021/08/04 07:39:55;;;;;;;13.52;12.60;;;15.00;86.40;;;;;;5048446;29;20120;-70
2021/08/04 07:42:27;;;;;;;13.32;12.27;;;15.10;86.60;;;;;;5046339;29;20127;-71
2021/08/04 07:45:00;;;;;;;13.15;12.25;;;15.10;85.70;;;;;;5051190;29;20159;-70
2021/08/04 07:47:32;;;;;;;13.18;12.27;;;15.10;85.30;;;;;;5046912;29;20080;-70
2021/08/04 07:50:06;;;;;;;13.20;12.30;;;15.10;85.30;;;;;;5047314;29;20076;-70
2021/08/04 07:52:38;;;;;;;13.50;12.50;;;15.20;86.00;;;;;;5045723;29;20108;-69
2021/08/04 07:55:13;;;;;;;12.95;12.05;;;15.30;85.20;;;;;;5048718;29;20060;-70
2021/08/04 07:57:46;;;;;;;13.27;12.38;;;15.30;85.10;;;;;;5048465;29;20416;-70
2021/08/04 08:00:18;;;;;;;13.43;12.43;;;15.40;85.50;;;;;;5046252;29;20096;-71
2021/08/04 08:02:49;;;;;;;14.60;13.60;;;15.50;85.90;;;;;;5047751;29;20385;-70
2021/08/04 08:05:23;;;;;;;14.25;13.25;;;15.50;85.40;;;;;;5046477;29;20508;-70
2021/08/04 08:07:55;;;;;;;13.82;12.82;;;15.60;85.30;;;;;;5043967;29;20048;-70
2021/08/04 08:10:27;;;;;;;13.82;12.85;;;15.60;84.50;;;;;;5043032;29;20100;-70
2021/08/04 08:12:59;;;;;;;13.95;12.95;;;15.60;83.90;;;;;;5050476;29;20128;-70
2021/08/04 08:15:32;;;;;;;14.35;13.15;;;15.60;83.60;;;;;;5045763;29;20059;-71
2021/08/04 08:18:08;;;;;;;13.50;12.50;;;15.70;85.10;;;;;;5047703;29;20768;-71
2021/08/04 08:20:41;;;;;;;14.10;13.10;;;15.80;84.10;;;;;;5043814;29;20457;-69
2021/08/04 08:23:13;;;;;;;14.23;13.23;;;15.90;83.90;;;;;;5046164;29;20105;-70
2021/08/04 08:25:45;;;;;;;13.93;12.93;;;15.90;85.00;;;;;;5046095;29;20126;-71
2021/08/04 08:28:20;;;;;;;13.90;12.90;;;16.00;84.80;;;;;;5043880;29;20056;-70
2021/08/04 08:30:52;;;;;;;14.35;13.35;;;16.10;86.80;;;;;;5047995;29;20076;-70
2021/08/04 08:33:24;;;;;;;14.13;13.13;;;16.20;85.10;;;;;;5047780;29;20049;-70
2021/08/04 08:35:56;;;;;;;14.32;13.32;;;16.40;85.30;;;;;;5046759;29;20599;-70
2021/08/04 08:38:28;;;;;;;14.05;13.00;;;16.40;83.20;;;;;;5048981;29;20780;-69
2021/08/04 08:41:00;;;;;;;14.05;13.05;;;16.60;83.50;;;;;;5046756;29;20044;-70
2021/08/04 08:43:34;;;;;;;15.82;14.30;;;16.70;85.90;;;;;;5048638;29;20073;-71
2021/08/04 08:46:06;;;;;;;14.55;13.45;;;16.90;85.40;;;;;;5044551;29;20063;-70
2021/08/04 08:48:38;;;;;;;14.82;13.82;;;17.00;83.80;;;;;;5041314;29;20041;-70
2021/08/04 08:51:10;;;;;;;14.52;13.52;;;17.10;83.10;;;;;;5046950;29;20519;-70
2021/08/04 08:53:42;;;;;;;14.88;13.88;;;17.20;84.10;;;;;;5049930;29;20124;-69
2021/08/04 08:56:18;;;;;;;14.73;13.73;;;17.30;83.70;;;;;;5049657;29;20480;-70
2021/08/04 08:58:52;;;;;;;15.25;14.15;;;17.30;81.60;;;;;;5045029;29;20578;-70
2021/08/04 09:01:37;;;;;;;15.43;14.38;;;17.30;81.10;;;;;;5044951;29;20545;-70
2021/08/04 09:04:10;;;;;;;14.75;13.75;;;17.20;81.20;;;;;;5038257;29;20432;-70
2021/08/04 09:06:47;;;;;;;14.82;13.73;;;17.20;82.10;;;;;;5030354;29;20143;-69
2021/08/04 09:09:23;;;;;;;15.27;14.18;;;17.20;81.70;;;;;;5045163;29;20061;-70
2021/08/04 09:12:16;;;;;;;14.85;13.75;;;17.30;81.90;;;;;;5044161;29;20049;-68
2021/08/04 09:14:48;;;;;;;14.57;13.57;;;17.40;81.50;;;;;;5045029;29;20134;-69
2021/08/04 09:17:20;;;;;;;14.55;13.45;;;17.50;81.60;;;;;;5044075;29;20044;-70
2021/08/04 09:19:52;;;;;;;14.68;13.68;;;17.50;80.40;;;;;;5046267;29;20923;-71
2021/08/04 09:22:26;;;;;;;14.73;13.65;;;17.40;79.70;;;;;;5044521;29;20048;-71
2021/08/04 09:25:09;;;;;;;14.98;13.88;;;17.50;81.20;;;;;;5045159;29;20112;-71
2021/08/04 09:27:49;;;;;;;14.70;13.70;;;17.60;81.60;;;;;;5027810;29;20088;-71
2021/08/04 09:30:32;;;;;;;14.55;13.55;;;17.60;81.20;;;;;;5045347;29;20089;-71
2021/08/04 09:33:16;;;;;;;14.32;13.20;;;17.60;81.10;;;;;;5020984;29;20059;-71
2021/08/04 09:35:50;;;;;;;14.73;13.55;;;17.70;80.10;;;;;;5044779;29;20049;-74
2021/08/04 09:38:24;;;;;;;15.07;13.88;;;17.60;79.50;;;;;;5046504;29;20141;-71
2021/08/04 09:41:15;;;;;;;15.00;13.80;;;17.60;79.00;;;;;;5046198;29;20045;-72
2021/08/04 09:43:51;;;;;;;14.68;13.57;;;17.50;78.60;;;;;;5048270;29;20538;-72
2021/08/04 09:46:26;;;;;;;14.25;13.25;;;17.50;78.70;;;;;;5045396;29;20205;-71
2021/08/04 09:49:13;;;;;;;14.35;13.32;;;17.50;80.10;;;;;;5043315;29;20381;-71
2021/08/04 09:51:47;;;;;;;14.88;13.80;;;17.40;78.60;;;;;;5047365;29;20839;-68
2021/08/04 09:54:19;;;;;;;14.77;13.68;;;17.40;80.00;;;;;;5045750;29;20475;-68
2021/08/04 09:56:53;;;;;;;14.32;13.32;;;17.40;79.20;;;;;;5045341;29;20591;-70
2021/08/04 09:59:25;;;;;;;15.43;14.32;;;17.40;79.50;;;;;;5045030;29;20051;-69
2021/08/04 10:01:59;;;;;;;15.02;13.82;;;17.40;80.90;;;;;;5045575;29;20044;-70
2021/08/04 10:04:32;;;;;;;14.43;13.43;;;17.50;80.30;;;;;;5047482;29;20045;-70
2021/08/04 10:07:08;;;;;;;14.43;13.38;;;17.60;80.80;;;;;;5047324;29;20124;-70
2021/08/04 10:09:41;;;;;;;14.80;13.70;;;17.70;80.80;;;;;;5045148;29;20487;-70
2021/08/04 10:12:14;;;;;;;14.40;13.40;;;17.70;79.70;;;;;;5049917;29;20400;-70
2021/08/04 10:14:46;;;;;;;14.30;13.20;;;17.80;79.30;;;;;;5035447;29;20123;-69
2021/08/04 10:17:19;;;;;;;14.40;13.40;;;17.90;79.30;;;;;;5048122;29;20056;-70
2021/08/04 10:19:51;;;;;;;15.15;14.00;;;17.90;79.50;;;;;;5046998;29;20140;-70
2021/08/04 10:22:23;;;;;;;15.40;14.30;;;18.00;79.90;;;;;;5046629;29;20052;-69
2021/08/04 10:24:55;;;;;;;15.05;14.05;;;18.00;78.60;;;;;;5047597;29;20037;-70
2021/08/04 10:27:28;;;;;;;14.63;13.52;;;18.10;78.00;;;;;;5052023;29;20151;-70
2021/08/04 10:30:01;;;;;;;15.15;14.05;;;18.10;77.40;;;;;;5053056;29;20120;-70
2021/08/04 10:32:33;;;;;;;15.43;14.30;;;18.20;78.60;;;;;;5046852;29;20064;-71
2021/08/04 10:35:07;;;;;;;14.68;13.68;;;18.20;75.90;;;;;;5049956;29;20048;-71
2021/08/04 10:37:41;;;;;;;15.10;14.10;;;18.30;77.30;;;;;;5048252;29;20048;-70
2021/08/04 10:40:15;;;;;;;14.30;13.30;;;18.30;77.90;;;;;;5051803;29;20044;-70
2021/08/04 10:42:47;;;;;;;14.85;13.75;;;18.30;76.40;;;;;;5048137;29;20044;-71
2021/08/04 10:45:22;;;;;;;14.85;13.75;;;18.30;76.50;;;;;;5047387;29;20144;-70
2021/08/04 10:47:58;;;;;;;14.60;13.50;;;18.30;76.00;;;;;;5046225;29;20152;-70
2021/08/04 10:50:30;;;;;;;15.00;14.00;;;18.30;76.50;;;;;;5048470;29;20059;-72
2021/08/04 10:53:05;;;;;;;15.02;13.90;;;18.40;76.70;;;;;;5047434;29;20061;-71
2021/08/04 10:55:56;;;;;;;15.10;14.00;;;18.40;76.20;;;;;;5034572;29;20080;-71
2021/08/04 10:58:28;;;;;;;14.98;13.77;;;18.30;75.70;;;;;;5048616;29;20052;-71
2021/08/04 11:01:22;;;;;;;15.15;14.05;;;18.30;76.10;;;;;;5050792;29;20037;-70
2021/08/04 11:03:54;;;;;;;15.02;13.93;;;18.30;76.20;;;;;;5043667;29;20080;-70
2021/08/04 11:06:27;;;;;;;15.27;14.18;;;18.30;76.70;;;;;;5047668;29;20101;-70
2021/08/04 11:09:17;;;;;;;14.70;13.70;;;18.30;74.60;;;;;;5048490;29;20072;-70
2021/08/04 11:11:54;;;;;;;;;;;18.30;75.00;;;;;;5048957;29;20049;-71
2021/08/04 11:14:53;;;;;;;15.20;14.10;;;18.30;75.10;;;;;;5037474;29;20018;-70
2021/08/04 11:17:28;;;;;;;15.18;14.07;;;18.20;75.20;;;;;;5032022;29;20081;-70
2021/08/04 11:20:05;;;;;;;14.75;13.65;;;18.10;76.90;;;;;;5045359;29;20155;-70
2021/08/04 11:22:37;;;;;;;14.85;13.75;;;18.10;79.30;;;;;;5045380;29;20048;-70
2021/08/04 11:25:38;;;;;;;15.13;14.05;;;18.20;77.50;;;;;;5048116;29;20123;-70
2021/08/04 11:28:15;;;;;;;14.82;13.82;;;18.20;77.40;;;;;;5048804;29;20049;-70
2021/08/04 11:30:53;;;;;;;14.70;13.65;;;18.20;77.80;;;;;;5048768;29;20128;-70
2021/08/04 11:33:29;;;;;;;14.98;13.77;;;18.20;77.50;;;;;;5050252;29;20045;-70
2021/08/04 11:36:02;;;;;;;14.70;13.68;;;18.20;78.00;;;;;;5051405;29;20045;-71
2021/08/04 11:38:54;;;;;;;15.38;14.27;;;18.20;78.30;;;;;;5047714;29;20774;-70
2021/08/04 11:41:32;;;;;;;14.55;13.45;;;18.20;79.30;;;;;;5028007;29;20052;-70
2021/08/04 11:44:26;;;;;;;15.50;14.30;;;18.20;79.80;;;;;;5047179;29;20105;-70
2021/08/04 11:47:02;;;;;;;15.18;14.07;;;18.10;79.40;;;;;;5044804;29;20121;-70
2021/08/04 11:49:41;;;;;;;15.60;14.30;;;18.10;79.20;;;;;;5049509;29;20484;-70
2021/08/04 11:52:25;;;;;;;14.38;13.27;;;18.10;79.70;;;;;;5044130;29;20128;-71
2021/08/04 11:54:58;;;;;;;14.82;13.82;;;18.10;80.00;;;;;;5049780;29;20575;-70
2021/08/04 11:57:36;;;;;;;14.60;13.50;;;18.10;80.20;;;;;;5045994;29;20081;-71
2021/08/04 12:00:17;;;;;;;14.35;13.23;;;18.10;79.50;;;;;;5048361;29;20137;-71
2021/08/04 12:02:49;;;;;;;14.02;12.95;;;18.00;79.70;;;;;;5044507;29;20067;-70
2021/08/04 12:05:22;;;;;;;14.48;13.48;;;18.00;80.20;;;;;;5046973;29;20052;-72
2021/08/04 12:07:54;;;;;;;13.88;12.77;;;18.00;79.60;;;;;;5049292;29;20144;-71
2021/08/04 12:10:26;;;;;;;14.38;13.38;;;17.90;80.40;;;;;;5046445;29;20142;-72
2021/08/04 12:12:58;;;;;;;13.90;12.80;;;17.90;80.40;;;;;;5041418;29;20117;-70
2021/08/04 12:15:30;;;;;;;14.05;13.05;;;17.90;81.00;;;;;;5036017;29;20477;-71
2021/08/04 12:18:05;;;;;;;14.85;13.75;;;17.90;81.10;;;;;;5045740;29;20071;-71
2021/08/04 12:20:37;;;;;;;14.80;13.70;;;17.90;81.80;;;;;;5046561;29;20101;-70
2021/08/04 12:23:12;;;;;;;14.52;13.52;;;17.90;82.20;;;;;;5045582;29;20045;-70
2021/08/04 12:25:44;;;;;;;15.05;13.95;;;17.90;81.60;;;;;;5044564;29;20113;-70
2021/08/04 12:28:16;;;;;;;14.32;13.32;;;17.90;81.60;;;;;;5023901;29;20072;-71
2021/08/04 12:30:50;;;;;;;15.15;14.05;;;17.80;81.30;;;;;;5048456;29;20053;-72
2021/08/04 12:33:23;;;;;;;14.50;13.35;;;17.80;81.10;;;;;;5046423;29;20519;-70
2021/08/04 12:39:08;;;;;;;14.02;13.02;;;17.80;81.40;;;;;;5049027;29;20059;-70
2021/08/04 12:41:40;;;;;;;15.00;13.90;;;17.80;81.60;;;;;;5044066;29;20127;-70
2021/08/04 12:44:16;;;;;;;14.57;13.57;;;17.80;81.60;;;;;;5031626;29;20084;-70
2021/08/04 12:46:48;;;;;;;14.75;13.65;;;17.80;81.70;;;;;;5046913;29;20128;-72
2021/08/04 12:49:36;;;;;;;15.30;14.20;;;17.70;82.40;;;;;;5047491;29;20047;-70
2021/08/04 12:52:08;;;;;;;14.95;13.85;;;17.70;82.40;;;;;;5045588;29;20523;-69
2021/08/04 12:54:41;;;;;;;14.90;13.63;;;17.70;82.40;;;;;;5045694;29;20133;-70
2021/08/04 12:57:22;;;;;;;14.70;13.60;;;17.70;83.20;;;;;;5034969;29;20116;-70
2021/08/04 12:59:54;;;;;;;15.50;14.30;;;17.70;82.90;;;;;;5050201;29;20044;-70
2021/08/04 13:02:38;;;;;;;14.43;13.23;;;17.70;82.60;;;;;;5038324;29;20317;-71
2021/08/04 13:05:10;;;;;;;14.82;13.73;;;17.70;82.40;;;;;;5042050;29;20056;-70
2021/08/04 13:07:43;;;;;;;15.23;14.13;;;17.70;82.70;;;;;;5049670;29;20072;-70